Time;durP1;ratioP1;P1;durP2;ratioP2;P2;SDS_P1;SDS_P2;PMS_P1;PMS_P2;Temp;Humidity;BMP_temperature;BMP_pressure;BME280_temperature;BME280_humidity;BME280_pressure;Samples;Min_cycle;Max_cycle;Signal;HPM_P1;HPM_P2
2022/03/29 00:00:21;;;;;;;17.63;15.70;;;12.10;41.00;;;;;;6251715;28;20595;-66
2022/03/29 00:03:24;;;;;;;17.73;15.87;;;12.10;41.20;;;;;;6269959;28;20477;-65
2022/03/29 00:06:27;;;;;;;18.00;16.10;;;12.10;41.50;;;;;;6267030;28;20478;-65
2022/03/29 00:09:30;;;;;;;17.43;15.67;;;12.10;41.60;;;;;;6275999;28;20796;-64
2022/03/29 00:12:36;;;;;;;19.47;16.90;;;12.00;41.80;;;;;;6276430;28;20969;-64
2022/03/29 00:15:39;;;;;;;15.83;14.20;;;11.90;42.00;;;;;;6277481;28;20965;-64
2022/03/29 00:18:42;;;;;;;17.53;15.73;;;11.80;42.40;;;;;;6277330;28;20469;-64
2022/03/29 00:21:46;;;;;;;16.43;14.70;;;11.80;42.60;;;;;;6276170;28;20489;-64
2022/03/29 00:24:49;;;;;;;18.00;16.00;;;11.70;42.50;;;;;;6277402;28;20474;-62
2022/03/29 00:27:53;;;;;;;19.43;15.53;;;11.70;42.60;;;;;;6277809;28;20485;-63
2022/03/29 00:30:56;;;;;;;17.77;15.97;;;11.70;42.70;;;;;;6275977;28;20482;-62
2022/03/29 00:33:59;;;;;;;20.00;15.67;;;11.60;43.30;;;;;;6276671;28;21016;-62
2022/03/29 00:37:03;;;;;;;16.93;15.23;;;11.60;42.70;;;;;;6276916;28;20512;-62
2022/03/29 00:40:08;;;;;;;17.27;15.60;;;11.60;42.90;;;;;;6276144;28;20481;-62
2022/03/29 00:43:12;;;;;;;18.13;16.10;;;11.60;43.00;;;;;;6276689;28;20981;-62
2022/03/29 00:46:15;;;;;;;18.50;15.97;;;11.60;43.10;;;;;;6277183;28;20454;-62
2022/03/29 00:49:18;;;;;;;17.40;15.70;;;11.50;43.00;;;;;;6277346;28;20442;-62
2022/03/29 00:52:22;;;;;;;17.13;15.33;;;11.50;43.20;;;;;;6275007;28;20588;-61
2022/03/29 00:55:26;;;;;;;17.10;15.30;;;11.40;43.10;;;;;;6239079;28;20444;-62
2022/03/29 00:58:32;;;;;;;21.03;15.80;;;11.40;43.20;;;;;;6242136;28;20435;-62
2022/03/29 01:01:35;;;;;;;16.40;14.30;;;11.40;43.40;;;;;;6275913;28;20465;-62
2022/03/29 01:04:38;;;;;;;16.77;15.10;;;11.40;43.80;;;;;;6271432;28;20470;-62
2022/03/29 01:07:42;;;;;;;17.20;15.40;;;11.30;44.00;;;;;;6236750;28;20473;-62
2022/03/29 01:10:46;;;;;;;17.27;15.43;;;11.10;44.20;;;;;;6266794;28;20479;-62
2022/03/29 01:13:51;;;;;;;16.70;15.00;;;11.20;44.60;;;;;;6237678;28;20471;-62
2022/03/29 01:20:19;;;;;;;16.33;14.63;;;11.10;45.50;;;;;;6273134;28;20503;-62
2022/03/29 01:23:23;;;;;;;17.93;15.50;;;11.10;45.00;;;;;;6262551;28;20829;-60
2022/03/29 01:26:27;;;;;;;18.37;14.60;;;11.10;45.50;;;;;;6253039;28;20474;-59
2022/03/29 01:29:31;;;;;;;20.47;14.47;;;11.10;46.30;;;;;;6275739;28;20471;-61
2022/03/29 01:32:35;;;;;;;17.97;14.60;;;11.10;46.00;;;;;;6274403;28;20943;-61
2022/03/29 01:35:40;;;;;;;15.80;13.93;;;11.00;46.20;;;;;;6264530;28;20482;-60
2022/03/29 01:38:44;;;;;;;16.00;13.93;;;10.90;46.60;;;;;;6251342;28;20847;-60
2022/03/29 01:41:48;;;;;;;17.00;14.30;;;11.00;46.60;;;;;;6251172;28;20482;-59
2022/03/29 01:44:51;;;;;;;16.57;13.83;;;11.00;46.60;;;;;;6251094;28;20471;-59
2022/03/29 01:47:54;;;;;;;18.20;15.87;;;10.90;46.60;;;;;;6251390;28;20474;-60
2022/03/29 01:50:57;;;;;;;16.70;15.10;;;10.80;46.70;;;;;;6251469;28;20794;-61
2022/03/29 01:54:03;;;;;;;16.53;14.10;;;10.80;46.90;;;;;;6250800;28;20471;-61
2022/03/29 01:57:06;;;;;;;16.40;14.60;;;10.70;47.20;;;;;;6250999;28;20490;-62
2022/03/29 02:03:32;;;;;;;17.30;15.50;;;10.70;47.60;;;;;;6250792;28;20975;-60
2022/03/29 02:06:36;;;;;;;17.67;14.37;;;10.70;47.80;;;;;;6250413;28;20479;-62
2022/03/29 02:09:40;;;;;;;16.40;14.70;;;10.70;48.00;;;;;;6250394;28;20467;-61
2022/03/29 02:12:43;;;;;;;17.10;14.37;;;10.70;48.00;;;;;;6246035;28;20487;-59
2022/03/29 02:15:46;;;;;;;16.40;14.70;;;10.70;48.00;;;;;;6250794;28;20495;-59
2022/03/29 02:18:49;;;;;;;17.50;14.53;;;10.70;48.10;;;;;;6250203;28;20490;-59
2022/03/29 02:21:53;;;;;;;19.97;15.40;;;10.60;48.10;;;;;;6250315;28;20475;-60
2022/03/29 02:24:57;;;;;;;16.93;15.13;;;10.60;48.20;;;;;;6249972;28;20526;-59
2022/03/29 02:28:01;;;;;;;16.50;14.07;;;10.60;48.50;;;;;;6250353;28;20476;-61
2022/03/29 02:31:04;;;;;;;17.40;15.57;;;10.70;48.50;;;;;;6249720;28;20486;-61
2022/03/29 02:34:07;;;;;;;16.97;14.83;;;10.60;48.60;;;;;;6250240;28;20509;-59
2022/03/29 02:37:11;;;;;;;16.47;14.63;;;10.60;48.80;;;;;;6250152;28;20478;-59
2022/03/29 02:40:16;;;;;;;18.53;14.43;;;10.50;49.10;;;;;;6250334;28;20763;-61
2022/03/29 02:43:19;;;;;;;15.80;14.20;;;10.60;49.40;;;;;;6250158;28;20497;-61
2022/03/29 02:46:22;;;;;;;15.87;14.07;;;10.50;49.50;;;;;;6250280;28;20891;-60
2022/03/29 02:49:26;;;;;;;17.20;14.50;;;10.50;49.70;;;;;;6250125;28;20443;-60
2022/03/29 02:52:29;;;;;;;16.00;14.40;;;10.50;49.70;;;;;;6249666;28;20483;-60
2022/03/29 02:55:34;;;;;;;16.10;14.03;;;10.40;49.90;;;;;;6250439;28;20471;-59
2022/03/29 02:58:37;;;;;;;17.87;14.77;;;10.50;50.20;;;;;;6249995;28;20513;-60
2022/03/29 03:01:40;;;;;;;14.80;13.27;;;10.40;50.70;;;;;;6249547;28;20474;-61
2022/03/29 03:04:43;;;;;;;16.07;14.30;;;10.30;50.40;;;;;;6249399;28;20610;-61
2022/03/29 03:07:48;;;;;;;15.27;13.53;;;10.20;50.70;;;;;;6250228;28;20467;-60
2022/03/29 03:10:52;;;;;;;15.77;12.83;;;10.20;51.70;;;;;;6249833;28;20464;-61
2022/03/29 03:13:55;;;;;;;20.30;14.83;;;10.20;51.40;;;;;;6249631;28;20993;-60
2022/03/29 03:16:59;;;;;;;16.93;14.30;;;10.10;51.40;;;;;;6249662;28;20482;-61
2022/03/29 03:20:17;;;;;;;17.17;14.47;;;10.10;51.80;;;;;;6249774;28;20480;-61
2022/03/29 03:23:20;;;;;;;15.33;13.50;;;10.10;51.80;;;;;;6249310;28;20490;-61
2022/03/29 03:26:25;;;;;;;18.03;14.43;;;10.10;51.90;;;;;;6250212;28;20471;-62
2022/03/29 03:29:28;;;;;;;16.13;14.30;;;10.10;52.10;;;;;;6249527;28;20963;-59
2022/03/29 03:32:31;;;;;;;15.20;13.67;;;10.10;52.30;;;;;;6249998;28;20482;-59
2022/03/29 03:35:34;;;;;;;14.63;13.13;;;10.10;52.30;;;;;;6249827;28;20475;-61
2022/03/29 03:38:37;;;;;;;15.97;14.33;;;10.00;52.30;;;;;;6250709;28;20467;-61
2022/03/29 03:41:42;;;;;;;18.07;15.03;;;10.00;52.40;;;;;;6250954;28;20486;-61
2022/03/29 03:44:45;;;;;;;17.27;14.73;;;9.90;53.40;;;;;;6249487;28;20480;-61
2022/03/29 03:47:48;;;;;;;16.63;14.10;;;10.00;52.90;;;;;;6249711;28;20479;-62
2022/03/29 03:50:51;;;;;;;17.93;14.27;;;9.90;54.60;;;;;;6249508;28;20510;-62
2022/03/29 03:53:54;;;;;;;18.80;13.80;;;9.90;54.20;;;;;;6249002;28;20463;-61
2022/03/29 03:56:59;;;;;;;21.07;14.90;;;9.90;54.40;;;;;;6253325;28;20477;-62
2022/03/29 04:00:02;;;;;;;18.70;14.23;;;9.90;55.20;;;;;;6253917;28;20475;-62
2022/03/29 04:03:05;;;;;;;20.57;15.10;;;9.90;55.00;;;;;;6253546;28;20471;-61
2022/03/29 04:06:08;;;;;;;17.30;14.57;;;9.90;55.20;;;;;;6253712;28;20961;-61
2022/03/29 04:09:12;;;;;;;19.20;13.97;;;9.90;55.20;;;;;;6253332;28;20794;-62
2022/03/29 04:12:16;;;;;;;20.03;16.13;;;9.90;56.00;;;;;;6253487;28;20467;-61
2022/03/29 04:15:19;;;;;;;17.43;14.00;;;9.80;55.30;;;;;;6253159;28;20482;-61
2022/03/29 04:18:22;;;;;;;17.43;15.03;;;9.80;55.50;;;;;;6253178;28;20973;-61
2022/03/29 04:21:25;;;;;;;16.77;14.30;;;9.80;55.70;;;;;;6253047;28;20485;-62
2022/03/29 04:24:33;;;;;;;16.60;14.70;;;9.80;55.50;;;;;;6252839;28;20479;-63
2022/03/29 04:27:37;;;;;;;17.87;15.80;;;9.70;56.40;;;;;;6252619;28;20475;-62
2022/03/29 04:30:40;;;;;;;16.93;13.60;;;9.70;56.10;;;;;;6253044;28;20486;-62
2022/03/29 04:33:45;;;;;;;19.10;14.53;;;9.60;56.10;;;;;;6252918;28;20845;-62
2022/03/29 04:36:48;;;;;;;18.87;12.77;;;9.60;56.50;;;;;;6252686;28;20943;-62
2022/03/29 04:39:51;;;;;;;17.00;15.27;;;9.60;56.70;;;;;;6253116;28;20847;-63
2022/03/29 04:42:55;;;;;;;15.73;14.03;;;9.60;56.90;;;;;;6252539;28;20971;-62
2022/03/29 04:46:01;;;;;;;16.40;13.73;;;9.50;57.10;;;;;;6252622;28;20487;-62
2022/03/29 04:49:05;;;;;;;20.50;14.93;;;9.50;57.20;;;;;;6252027;28;20479;-62
2022/03/29 04:52:08;;;;;;;18.50;16.67;;;9.50;57.50;;;;;;6252267;28;20484;-62
2022/03/29 04:55:12;;;;;;;18.07;15.53;;;9.50;57.70;;;;;;6252307;28;20472;-61
2022/03/29 04:58:17;;;;;;;19.73;15.00;;;9.50;58.00;;;;;;6252189;28;20534;-61
2022/03/29 05:01:20;;;;;;;19.07;15.27;;;9.50;58.10;;;;;;6252435;28;20447;-61
2022/03/29 05:04:24;;;;;;;16.00;14.50;;;9.50;58.40;;;;;;6252025;28;20577;-61
2022/03/29 05:07:28;;;;;;;17.87;15.77;;;9.60;58.40;;;;;;6251635;28;20440;-61
2022/03/29 05:10:32;;;;;;;16.80;13.10;;;9.60;58.40;;;;;;6251649;28;20452;-61
2022/03/29 05:13:36;;;;;;;16.80;15.07;;;9.70;58.50;;;;;;6251870;28;20466;-61
2022/03/29 05:16:39;;;;;;;27.30;15.20;;;9.70;59.10;;;;;;6251999;28;20824;-62
2022/03/29 05:19:42;;;;;;;16.60;14.87;;;9.80;58.50;;;;;;6252347;28;20514;-62
2022/03/29 05:22:47;;;;;;;19.03;13.83;;;9.80;58.50;;;;;;6246516;28;20947;-61
2022/03/29 05:25:50;;;;;;;17.13;13.80;;;9.90;58.50;;;;;;6252368;28;20479;-61
2022/03/29 05:28:56;;;;;;;17.97;14.47;;;10.00;57.50;;;;;;6251692;28;20970;-62
2022/03/29 05:32:00;;;;;;;20.40;15.13;;;10.10;57.30;;;;;;6252087;28;20488;-62
2022/03/29 05:35:05;;;;;;;18.00;13.63;;;10.20;57.10;;;;;;6251799;28;20637;-63
2022/03/29 05:38:08;;;;;;;15.30;12.63;;;10.30;56.80;;;;;;6251165;28;20471;-62
2022/03/29 05:41:15;;;;;;;16.70;12.60;;;10.40;56.60;;;;;;6251163;28;20479;-62
2022/03/29 05:44:19;;;;;;;13.63;12.17;;;10.40;56.40;;;;;;6251407;28;20475;-63
2022/03/29 05:50:43;;;;;;;16.37;14.57;;;10.70;55.90;;;;;;6251124;28;20974;-63
2022/03/29 05:53:46;;;;;;;18.07;13.53;;;10.80;55.70;;;;;;6251305;28;20467;-63
2022/03/29 05:56:50;;;;;;;21.23;14.43;;;10.90;55.30;;;;;;6251168;28;20464;-63
2022/03/29 05:59:55;;;;;;;17.63;15.00;;;11.00;55.90;;;;;;6250622;28;20471;-62
2022/03/29 06:02:58;;;;;;;16.87;14.70;;;11.20;55.10;;;;;;6250905;28;20486;-61
2022/03/29 06:06:01;;;;;;;17.67;13.97;;;11.40;54.60;;;;;;6250690;28;20475;-62
2022/03/29 06:09:04;;;;;;;21.43;14.67;;;11.50;54.20;;;;;;6250864;28;20830;-62
2022/03/29 06:12:08;;;;;;;15.47;13.93;;;11.70;53.90;;;;;;6250532;28;20782;-62
2022/03/29 06:15:15;;;;;;;16.43;12.77;;;11.90;53.60;;;;;;6250555;28;20471;-62
2022/03/29 06:18:18;;;;;;;18.53;14.43;;;12.10;53.70;;;;;;6250111;28;20883;-63
2022/03/29 06:21:24;;;;;;;16.77;14.37;;;12.30;52.40;;;;;;6250137;28;20482;-63
2022/03/29 06:24:28;;;;;;;20.47;14.17;;;12.50;52.00;;;;;;6250232;28;20479;-63
2022/03/29 06:27:31;;;;;;;23.27;15.70;;;12.60;51.80;;;;;;6250746;28;20475;-63
2022/03/29 06:30:35;;;;;;;19.30;15.07;;;12.70;51.30;;;;;;6245973;28;20491;-63
2022/03/29 06:33:39;;;;;;;26.17;15.60;;;13.00;51.90;;;;;;6250163;28;20954;-63
2022/03/29 06:36:42;;;;;;;23.47;15.90;;;13.40;51.10;;;;;;6250539;28;20493;-62
2022/03/29 06:39:45;;;;;;;19.07;14.63;;;14.10;50.10;;;;;;6250213;28;20832;-63
2022/03/29 06:42:48;;;;;;;20.37;13.80;;;14.90;48.00;;;;;;6250530;28;20962;-63
2022/03/29 06:45:52;;;;;;;14.43;12.93;;;15.60;45.90;;;;;;6250083;28;20481;-64
2022/03/29 06:48:56;;;;;;;18.13;13.57;;;16.20;45.10;;;;;;6250473;28;21018;-63
2022/03/29 06:52:00;;;;;;;19.70;14.30;;;16.80;42.90;;;;;;6250280;28;20479;-64
2022/03/29 06:55:04;;;;;;;15.00;13.43;;;17.50;42.30;;;;;;6250261;28;20513;-64
2022/03/29 06:58:07;;;;;;;16.60;14.00;;;18.10;40.20;;;;;;6251583;28;20471;-64
2022/03/29 07:01:12;;;;;;;15.63;14.13;;;18.90;38.80;;;;;;6255646;28;20568;-64
2022/03/29 07:04:15;;;;;;;15.30;12.90;;;19.70;38.60;;;;;;6253281;28;20228;-64
2022/03/29 07:07:20;;;;;;;16.70;15.00;;;20.60;36.30;;;;;;6252653;28;20224;-63
2022/03/29 07:13:45;;;;;;;16.53;14.80;;;22.20;33.20;;;;;;6261134;28;20232;-63
2022/03/29 07:16:50;;;;;;;17.27;15.20;;;23.20;31.80;;;;;;6251687;28;20251;-63
2022/03/29 07:19:53;;;;;;;17.23;15.30;;;23.90;30.60;;;;;;6250475;28;20281;-62
2022/03/29 07:22:57;;;;;;;19.53;16.40;;;24.40;29.30;;;;;;6250721;28;20242;-60
2022/03/29 07:26:00;;;;;;;22.17;19.83;;;24.70;28.90;;;;;;6250185;28;20613;-60
2022/03/29 07:29:04;;;;;;;26.00;20.87;;;25.10;28.50;;;;;;6250312;28;20232;-60
2022/03/29 07:32:09;;;;;;;29.07;22.30;;;25.20;28.10;;;;;;6245686;28;20236;-61
2022/03/29 07:35:20;;;;;;;23.37;21.17;;;25.60;27.90;;;;;;6256630;28;20771;-61
2022/03/29 07:38:24;;;;;;;23.00;20.70;;;26.10;27.40;;;;;;6258366;28;20235;-61
2022/03/29 07:41:27;;;;;;;31.00;21.00;;;26.70;26.60;;;;;;6262764;28;20231;-62
2022/03/29 07:44:30;;;;;;;24.87;21.07;;;27.20;26.20;;;;;;6263655;28;20238;-61
2022/03/29 07:47:35;;;;;;;27.67;22.47;;;28.10;25.40;;;;;;6257045;28;20231;-61
2022/03/29 07:50:58;;;;;;;25.73;22.10;;;28.90;24.60;;;;;;6256979;28;20298;-61
2022/03/29 07:54:03;;;;;;;24.67;20.60;;;29.60;23.60;;;;;;6255762;28;20254;-61
2022/03/29 07:57:08;;;;;;;25.70;21.43;;;30.20;23.10;;;;;;6254941;28;20232;-61
2022/03/29 08:00:35;;;;;;;25.10;22.00;;;30.30;22.70;;;;;;6254202;28;20658;-61
2022/03/29 08:03:42;;;;;;;28.10;21.83;;;30.70;22.50;;;;;;6254571;28;20232;-60
2022/03/29 08:06:45;;;;;;;23.30;20.85;;;31.40;21.90;;;;;;6254411;28;20297;-61
2022/03/29 08:09:48;;;;;;;29.65;21.73;;;32.10;21.40;;;;;;6255087;28;20244;-61
2022/03/29 08:12:51;;;;;;;24.08;20.60;;;32.60;21.00;;;;;;6254492;28;20243;-61
2022/03/29 08:15:56;;;;;;;22.02;19.92;;;32.80;20.60;;;;;;6254209;28;20228;-61
2022/03/29 08:19:01;;;;;;;23.98;20.77;;;33.20;20.30;;;;;;6255318;28;20228;-61
2022/03/29 08:22:05;;;;;;;25.30;20.35;;;34.10;19.80;;;;;;6256332;28;20236;-61
2022/03/29 08:25:09;;;;;;;27.58;22.02;;;34.70;19.20;;;;;;6257298;28;20254;-61
2022/03/29 08:28:13;;;;;;;29.75;22.75;;;35.30;18.80;;;;;;6256753;28;20671;-62
2022/03/29 08:31:17;;;;;;;19.88;18.15;;;36.20;18.60;;;;;;6279557;28;20226;-62
2022/03/29 08:34:22;;;;;;;25.30;20.98;;;36.40;17.70;;;;;;6250303;28;20235;-61
2022/03/29 08:37:25;;;;;;;22.70;20.40;;;36.80;17.50;;;;;;6254281;28;20540;-61
2022/03/29 08:40:28;;;;;;;21.23;19.30;;;37.30;17.00;;;;;;6255108;28;20215;-62
2022/03/29 08:43:31;;;;;;;21.90;19.10;;;37.70;16.70;;;;;;6254279;28;20251;-62
2022/03/29 08:46:38;;;;;;;22.20;19.75;;;38.10;16.50;;;;;;6253631;28;20243;-62
2022/03/29 08:49:44;;;;;;;20.73;18.63;;;38.50;16.10;;;;;;6251445;28;20235;-62
2022/03/29 08:52:48;;;;;;;21.27;18.85;;;39.10;15.80;;;;;;6244396;28;20235;-65
2022/03/29 08:55:51;;;;;;;22.60;20.33;;;39.90;15.50;;;;;;6241522;28;20224;-65
2022/03/29 08:59:00;;;;;;;26.80;20.45;;;40.80;15.00;;;;;;6248310;28;20345;-65
2022/03/29 09:02:10;;;;;;;21.10;19.10;;;41.50;14.60;;;;;;6276186;28;20591;-66
2022/03/29 09:05:16;;;;;;;21.25;18.85;;;41.50;14.20;;;;;;6266518;28;20221;-65
2022/03/29 09:08:19;;;;;;;21.73;19.88;;;41.20;14.10;;;;;;6238369;28;20224;-67
2022/03/29 09:11:23;;;;;;;24.92;22.40;;;41.90;13.90;;;;;;6247330;28;20230;-66
2022/03/29 09:14:30;;;;;;;21.88;19.98;;;42.60;13.60;;;;;;6248796;28;20227;-66
2022/03/29 09:17:38;;;;;;;23.60;20.83;;;43.20;13.40;;;;;;6276985;28;20231;-67
2022/03/29 09:20:42;;;;;;;22.95;20.77;;;43.30;13.30;;;;;;6276836;28;20235;-66
2022/03/29 09:24:05;;;;;;;22.23;19.90;;;43.70;12.90;;;;;;6276793;28;20246;-66
2022/03/29 09:27:10;;;;;;;21.63;19.48;;;43.80;13.30;;;;;;6276275;28;20660;-64
2022/03/29 09:30:14;;;;;;;20.80;18.90;;;44.60;12.60;;;;;;6278072;28;20234;-63
2022/03/29 09:33:19;;;;;;;22.67;19.20;;;44.90;12.30;;;;;;6276417;28;20231;-62
2022/03/29 09:36:24;;;;;;;20.83;18.63;;;44.90;12.10;;;;;;6277207;28;20222;-62
2022/03/29 09:39:37;;;;;;;21.83;19.58;;;44.80;12.60;;;;;;6276309;28;20230;-62
2022/03/29 09:42:41;;;;;;;20.48;18.67;;;43.10;12.60;;;;;;6276199;28;20293;-64
2022/03/29 09:45:50;;;;;;;19.70;17.60;;;42.80;13.20;;;;;;6275801;28;20242;-65
2022/03/29 09:49:00;;;;;;;19.92;17.98;;;43.70;12.80;;;;;;6276279;28;20231;-65
2022/03/29 09:52:14;;;;;;;20.83;18.63;;;43.40;12.70;;;;;;6274832;28;20250;-65
2022/03/29 09:55:21;;;;;;;19.25;17.52;;;44.30;12.50;;;;;;6250829;28;20224;-65
2022/03/29 09:58:24;;;;;;;21.75;18.83;;;44.80;12.10;;;;;;6251244;28;20211;-65
2022/03/29 10:01:27;;;;;;;18.42;16.92;;;44.50;11.90;;;;;;6250848;28;20212;-65
2022/03/29 10:04:31;;;;;;;19.30;17.48;;;43.70;12.20;;;;;;6250504;28;20230;-67
2022/03/29 10:07:42;;;;;;;17.95;16.30;;;44.10;12.80;;;;;;6250340;28;20675;-63
2022/03/29 10:10:46;;;;;;;20.85;17.60;;;44.40;12.10;;;;;;6248572;28;20227;-64
2022/03/29 10:13:50;;;;;;;19.38;17.45;;;44.10;11.90;;;;;;6232306;28;20546;-65
2022/03/29 10:16:54;;;;;;;18.98;17.17;;;43.10;11.90;;;;;;6247822;28;20671;-65
2022/03/29 10:19:58;;;;;;;18.00;16.35;;;42.00;12.40;;;;;;6250475;28;20310;-65
2022/03/29 10:23:04;;;;;;;19.63;17.88;;;41.30;12.70;;;;;;6250687;28;20242;-65
2022/03/29 10:26:09;;;;;;;20.23;18.25;;;39.60;12.70;;;;;;6250052;28;20231;-65
2022/03/29 10:29:12;;;;;;;18.45;16.92;;;38.70;13.30;;;;;;6250185;28;20671;-65
2022/03/29 10:32:29;;;;;;;18.55;16.77;;;37.60;13.60;;;;;;6250069;28;20239;-64
2022/03/29 10:35:32;;;;;;;18.35;16.63;;;35.40;14.30;;;;;;6250156;28;20568;-65
2022/03/29 10:38:57;;;;;;;18.20;16.65;;;33.70;15.40;;;;;;6250604;28;20557;-64
2022/03/29 10:42:01;;;;;;;17.15;15.68;;;32.60;16.10;;;;;;6250632;28;20574;-64
2022/03/29 10:45:16;;;;;;;18.27;16.58;;;32.20;16.60;;;;;;6245729;28;20239;-64
2022/03/29 10:48:28;;;;;;;19.13;17.38;;;31.20;16.90;;;;;;6250004;28;20680;-64
2022/03/29 10:51:31;;;;;;;19.48;17.73;;;30.30;17.70;;;;;;6250204;28;20235;-63
2022/03/29 10:54:37;;;;;;;19.90;17.17;;;29.50;18.80;;;;;;6247823;28;20227;-63
2022/03/29 10:57:40;;;;;;;20.37;17.37;;;29.20;19.50;;;;;;6269733;28;20219;-64
2022/03/29 11:00:45;;;;;;;18.83;17.00;;;29.10;19.40;;;;;;6274588;28;20226;-63
2022/03/29 11:03:59;;;;;;;20.17;17.40;;;28.90;19.80;;;;;;6275044;28;20281;-63
2022/03/29 11:07:14;;;;;;;19.50;16.97;;;28.60;20.00;;;;;;6279652;28;20598;-63
2022/03/29 11:10:20;;;;;;;18.87;17.17;;;27.90;20.50;;;;;;6279111;28;20648;-63
2022/03/29 11:13:24;;;;;;;20.43;18.53;;;28.20;20.50;;;;;;6279575;28;20223;-64
2022/03/29 11:16:30;;;;;;;20.80;18.80;;;28.40;20.50;;;;;;6279422;28;20646;-66
2022/03/29 11:19:42;;;;;;;20.40;18.60;;;28.60;20.40;;;;;;6276622;28;20203;-63
2022/03/29 11:22:45;;;;;;;21.23;19.30;;;28.90;20.10;;;;;;6278850;28;20246;-63
2022/03/29 11:25:51;;;;;;;19.57;17.50;;;28.20;20.50;;;;;;6279159;28;20245;-63
2022/03/29 11:28:59;;;;;;;22.00;19.90;;;28.30;20.30;;;;;;6279583;28;20235;-62
2022/03/29 11:32:04;;;;;;;22.77;20.40;;;28.10;20.30;;;;;;6279826;28;20250;-62
2022/03/29 11:35:09;;;;;;;22.70;20.70;;;27.80;20.80;;;;;;6278639;28;20276;-62
2022/03/29 11:38:15;;;;;;;23.37;21.07;;;28.20;20.80;;;;;;6279121;28;20227;-63
2022/03/29 11:41:25;;;;;;;21.73;19.80;;;28.10;20.60;;;;;;6279064;28;20227;-62
2022/03/29 11:44:28;;;;;;;22.83;20.73;;;28.10;20.70;;;;;;6278820;28;20238;-62
2022/03/29 11:47:31;;;;;;;23.97;21.50;;;28.30;20.40;;;;;;6269488;28;20234;-62
2022/03/29 11:50:37;;;;;;;21.07;19.20;;;27.30;20.70;;;;;;6278393;28;20246;-62
2022/03/29 11:53:40;;;;;;;23.67;19.70;;;27.40;21.10;;;;;;6278382;28;20242;-63
2022/03/29 11:56:45;;;;;;;22.87;20.67;;;27.70;21.00;;;;;;6278412;28;20234;-64
2022/03/29 11:59:48;;;;;;;23.60;21.30;;;28.00;20.60;;;;;;6278257;28;20288;-62
2022/03/29 12:02:58;;;;;;;25.17;22.60;;;28.10;20.40;;;;;;6278177;28;20235;-63
2022/03/29 12:06:06;;;;;;;22.57;20.27;;;28.10;20.70;;;;;;6278086;28;20243;-64
2022/03/29 12:09:09;;;;;;;23.27;21.10;;;27.80;20.70;;;;;;6278531;28;20243;-64
2022/03/29 12:12:14;;;;;;;23.37;20.97;;;27.60;20.90;;;;;;6277834;28;20714;-61
2022/03/29 12:15:19;;;;;;;21.60;19.60;;;27.80;21.00;;;;;;6277378;28;20235;-61
2022/03/29 12:18:45;;;;;;;23.83;21.50;;;28.00;20.70;;;;;;6278332;28;20310;-61
2022/03/29 12:21:51;;;;;;;21.83;19.60;;;28.20;20.40;;;;;;6277909;28;20305;-61
2022/03/29 12:25:00;;;;;;;25.37;19.17;;;28.20;20.20;;;;;;6277597;28;20274;-60
2022/03/29 12:28:05;;;;;;;20.50;18.50;;;27.90;19.90;;;;;;6277425;28;20237;-62
2022/03/29 12:31:11;;;;;;;23.00;21.00;;;27.80;20.20;;;;;;6277501;28;20272;-62
2022/03/29 12:34:15;;;;;;;19.50;17.80;;;27.30;21.20;;;;;;6277081;28;20839;-62
2022/03/29 12:37:19;;;;;;;21.67;19.67;;;27.10;20.70;;;;;;6277427;28;20234;-62
2022/03/29 12:40:27;;;;;;;21.93;19.70;;;27.20;20.80;;;;;;6277745;28;20190;-63
2022/03/29 12:43:33;;;;;;;20.40;18.37;;;27.20;21.20;;;;;;6277181;28;20227;-63
2022/03/29 12:46:37;;;;;;;21.10;19.20;;;27.30;20.90;;;;;;6277172;28;20576;-62
2022/03/29 12:49:41;;;;;;;20.40;18.60;;;26.80;20.50;;;;;;6267968;28;20241;-62
2022/03/29 12:52:45;;;;;;;22.03;19.80;;;26.40;20.80;;;;;;6276895;28;20239;-63
2022/03/29 12:55:55;;;;;;;21.93;19.80;;;26.50;20.90;;;;;;6276840;28;20231;-62
2022/03/29 12:59:00;;;;;;;18.37;16.80;;;26.70;20.60;;;;;;6276793;28;20238;-65
2022/03/29 13:02:14;;;;;;;19.00;17.00;;;26.60;20.50;;;;;;6277027;28;20235;-64
2022/03/29 13:05:18;;;;;;;18.20;16.40;;;26.30;20.50;;;;;;6270519;28;20215;-63
2022/03/29 13:08:23;;;;;;;20.43;18.73;;;26.70;20.10;;;;;;6273460;28;20235;-64
2022/03/29 13:11:26;;;;;;;21.43;19.23;;;26.90;20.10;;;;;;6276678;28;20239;-66
2022/03/29 13:14:37;;;;;;;18.93;17.13;;;27.10;20.00;;;;;;6276377;28;20656;-62
2022/03/29 13:17:40;;;;;;;21.63;19.40;;;27.30;19.90;;;;;;6276368;28;20702;-63
2022/03/29 13:20:44;;;;;;;20.30;18.17;;;27.20;19.60;;;;;;6276170;28;20562;-63
2022/03/29 13:23:49;;;;;;;19.90;18.07;;;27.20;19.80;;;;;;6276488;28;20250;-67
2022/03/29 13:26:53;;;;;;;18.43;16.73;;;27.00;19.60;;;;;;6276303;28;20231;-67
2022/03/29 13:29:57;;;;;;;19.00;17.20;;;26.80;20.00;;;;;;6276408;28;20227;-67
2022/03/29 13:33:00;;;;;;;19.27;17.30;;;26.10;20.10;;;;;;6275712;28;20675;-66
2022/03/29 13:36:07;;;;;;;18.57;16.63;;;26.00;20.20;;;;;;6276038;28;20231;-67
2022/03/29 13:39:14;;;;;;;18.90;17.10;;;26.00;20.20;;;;;;6276097;28;20234;-66
2022/03/29 13:42:37;;;;;;;21.00;19.00;;;26.00;20.20;;;;;;6275647;28;20231;-66
2022/03/29 13:45:42;;;;;;;20.73;18.87;;;26.20;20.30;;;;;;6276007;28;20230;-66
2022/03/29 13:48:45;;;;;;;21.40;19.23;;;26.30;20.50;;;;;;6275618;28;20234;-66
2022/03/29 13:51:48;;;;;;;20.27;18.27;;;26.00;20.80;;;;;;6275353;28;20227;-65
2022/03/29 13:54:51;;;;;;;21.10;18.93;;;25.50;21.50;;;;;;6271556;28;20237;-66
2022/03/29 13:57:55;;;;;;;21.33;18.80;;;25.20;21.60;;;;;;6275590;28;20673;-64
2022/03/29 14:01:01;;;;;;;21.83;19.70;;;24.60;22.50;;;;;;6275167;28;20231;-64
2022/03/29 14:04:05;;;;;;;22.57;20.27;;;24.50;23.10;;;;;;6275106;28;20686;-67
2022/03/29 14:07:09;;;;;;;22.83;20.30;;;24.30;23.20;;;;;;6275660;28;20714;-67
2022/03/29 14:10:14;;;;;;;22.43;20.40;;;24.10;23.20;;;;;;6275770;28;20232;-66
2022/03/29 14:13:17;;;;;;;20.43;18.63;;;23.90;23.20;;;;;;6276578;28;20223;-67
2022/03/29 14:16:23;;;;;;;20.77;18.90;;;24.00;23.00;;;;;;6275591;28;20222;-66
2022/03/29 14:19:26;;;;;;;20.27;18.37;;;24.00;23.00;;;;;;6275785;28;20511;-66
2022/03/29 14:22:49;;;;;;;21.47;19.00;;;24.20;23.00;;;;;;6275187;28;20353;-66
2022/03/29 14:25:53;;;;;;;20.90;18.90;;;24.30;22.80;;;;;;6275489;28;20266;-66
2022/03/29 14:28:56;;;;;;;20.57;18.67;;;24.00;22.90;;;;;;6275669;28;20580;-65
2022/03/29 14:32:02;;;;;;;21.13;18.60;;;24.10;22.70;;;;;;6276273;28;20306;-65
2022/03/29 14:35:06;;;;;;;20.73;18.57;;;24.30;22.80;;;;;;6273992;28;20224;-63
2022/03/29 14:38:09;;;;;;;20.20;18.23;;;23.90;22.10;;;;;;6275425;28;20238;-63
2022/03/29 14:41:12;;;;;;;20.13;18.13;;;23.60;22.50;;;;;;6275076;28;20231;-63
2022/03/29 14:44:16;;;;;;;19.30;17.40;;;23.50;22.30;;;;;;6274458;28;20694;-63
2022/03/29 14:47:20;;;;;;;21.70;19.50;;;23.60;23.10;;;;;;6274787;28;20223;-63
2022/03/29 14:50:25;;;;;;;21.20;17.60;;;23.70;21.90;;;;;;6257844;28;20583;-63
2022/03/29 14:53:30;;;;;;;19.47;17.57;;;23.40;21.80;;;;;;6274069;28;20232;-62
2022/03/29 14:56:33;;;;;;;20.80;18.70;;;23.30;21.70;;;;;;6250736;28;20236;-64
2022/03/29 14:59:36;;;;;;;19.67;17.77;;;23.10;21.60;;;;;;6249557;28;20232;-64
2022/03/29 15:02:41;;;;;;;20.00;17.97;;;22.80;21.40;;;;;;6269508;28;20246;-64
2022/03/29 15:05:45;;;;;;;20.00;18.10;;;22.70;21.20;;;;;;6275470;28;20239;-61
2022/03/29 15:08:48;;;;;;;19.93;17.90;;;22.70;20.90;;;;;;6274718;28;20647;-62
2022/03/29 15:11:52;;;;;;;20.73;18.80;;;22.80;21.10;;;;;;6274374;28;20231;-64
2022/03/29 15:14:55;;;;;;;23.10;21.00;;;22.60;21.50;;;;;;6274253;28;20250;-65
2022/03/29 15:17:59;;;;;;;23.73;21.23;;;22.50;22.00;;;;;;6274130;28;20573;-65
2022/03/29 15:21:02;;;;;;;23.43;20.77;;;22.30;22.30;;;;;;6274101;28;20649;-65
2022/03/29 15:24:06;;;;;;;21.40;19.40;;;22.30;22.50;;;;;;6274047;28;20235;-61
2022/03/29 15:27:09;;;;;;;22.63;20.23;;;21.90;22.60;;;;;;6274002;28;20227;-62
2022/03/29 15:30:13;;;;;;;21.60;19.50;;;21.80;22.80;;;;;;6273617;28;20235;-63
2022/03/29 15:33:18;;;;;;;22.70;20.53;;;21.80;23.20;;;;;;6274063;28;20227;-63
2022/03/29 15:36:21;;;;;;;23.20;20.93;;;21.80;23.30;;;;;;6273924;28;20572;-63
2022/03/29 15:39:24;;;;;;;24.13;21.57;;;21.60;24.20;;;;;;6274012;28;20235;-63
2022/03/29 15:42:28;;;;;;;25.60;23.03;;;21.50;24.80;;;;;;6273700;28;20247;-61
2022/03/29 15:45:31;;;;;;;24.80;22.30;;;21.40;24.80;;;;;;6273559;28;20238;-62
2022/03/29 15:48:36;;;;;;;23.10;20.80;;;21.50;24.80;;;;;;6273601;28;20709;-64
2022/03/29 15:51:39;;;;;;;23.60;21.37;;;21.40;25.30;;;;;;6275743;28;20239;-64